createdAt,value
2023-04-30T00:01:51.227Z,13.60
2023-04-30T00:05:52.471Z,13.70
2023-04-30T00:09:53.836Z,13.70
2023-04-30T00:13:56.412Z,13.70
2023-04-30T00:17:57.621Z,13.80
2023-04-30T00:22:00.653Z,13.80
2023-04-30T00:26:02.034Z,13.80
2023-04-30T00:30:03.754Z,13.70
2023-04-30T00:34:05.129Z,13.60
2023-04-30T00:38:06.285Z,13.70
2023-04-30T00:42:12.554Z,13.70
2023-04-30T00:46:13.782Z,13.60
2023-04-30T00:50:15.570Z,13.60
2023-04-30T00:54:17.529Z,13.50
2023-04-30T00:58:18.788Z,13.50
2023-04-30T01:02:20.213Z,13.60
2023-04-30T01:06:21.624Z,13.70
2023-04-30T01:10:26.557Z,13.60
2023-04-30T01:14:31.533Z,13.60
2023-04-30T01:18:45.367Z,13.60
2023-04-30T01:23:11.927Z,13.20
2023-04-30T01:27:43.978Z,13.20
2023-04-30T01:31:45.529Z,13.00
2023-04-30T01:35:55.888Z,13.10
2023-04-30T01:40:11.496Z,13.00
2023-04-30T01:44:16.433Z,12.90
2023-04-30T01:48:24.467Z,13.00
2023-04-30T01:52:31.969Z,13.00
2023-04-30T01:56:40.614Z,13.00
2023-04-30T02:00:42.070Z,13.00
2023-04-30T02:04:43.397Z,12.90
2023-04-30T02:08:44.591Z,12.90
2023-04-30T02:12:45.931Z,12.80
2023-04-30T02:16:47.096Z,12.80
2023-04-30T02:20:48.245Z,12.70
2023-04-30T02:24:49.592Z,12.80
2023-04-30T02:28:50.767Z,12.90
2023-04-30T02:32:51.844Z,12.90
2023-04-30T02:36:53.049Z,12.80
2023-04-30T02:40:54.223Z,12.70
2023-04-30T02:44:55.374Z,12.70
2023-04-30T02:48:56.846Z,12.80
2023-04-30T02:52:58.113Z,12.90
2023-04-30T02:56:59.251Z,12.90
2023-04-30T03:01:00.431Z,12.70
2023-04-30T03:05:02.282Z,12.60
2023-04-30T03:09:03.455Z,12.40
2023-04-30T03:13:04.614Z,12.40
2023-04-30T03:17:06.285Z,12.40
2023-04-30T03:21:09.889Z,12.40
2023-04-30T03:25:11.149Z,12.50
2023-04-30T03:29:12.539Z,12.50
2023-04-30T03:33:13.749Z,12.50
2023-04-30T03:37:14.969Z,12.30
2023-04-30T03:41:16.153Z,12.30
2023-04-30T03:45:18.216Z,12.30
2023-04-30T03:49:19.471Z,12.20
2023-04-30T03:53:20.666Z,12.00
2023-04-30T03:57:21.943Z,12.00
2023-04-30T04:01:23.312Z,12.00
2023-04-30T04:05:24.861Z,12.10
2023-04-30T04:09:26.533Z,12.00
2023-04-30T04:13:27.700Z,11.90
2023-04-30T04:17:28.875Z,12.00
2023-04-30T04:21:30.951Z,12.00
2023-04-30T04:25:32.730Z,12.00
2023-04-30T04:29:33.911Z,11.80
2023-04-30T04:33:36.356Z,11.80
2023-04-30T04:37:37.597Z,11.70
2023-04-30T04:41:38.779Z,11.80
2023-04-30T04:45:40.436Z,11.90
2023-04-30T04:51:10.486Z,11.90
2023-04-30T04:55:12.193Z,12.00
2023-04-30T04:59:13.527Z,12.00
2023-04-30T05:03:14.855Z,11.90
2023-04-30T05:07:17.269Z,12.00
2023-04-30T05:11:18.441Z,12.00
2023-04-30T05:15:19.914Z,12.00
2023-04-30T05:19:21.476Z,12.10
2023-04-30T05:23:22.656Z,12.10
2023-04-30T05:27:23.853Z,12.20
2023-04-30T05:31:25.033Z,12.20
2023-04-30T05:35:26.404Z,12.30
2023-04-30T05:39:27.565Z,12.40
2023-04-30T05:43:28.728Z,12.40
2023-04-30T05:47:30.535Z,12.50
2023-04-30T05:51:32.016Z,12.50
2023-04-30T05:55:33.878Z,12.60
2023-04-30T05:59:35.069Z,12.80
2023-04-30T06:03:37.727Z,12.90
2023-04-30T06:07:38.896Z,12.80
2023-04-30T06:11:42.374Z,13.00
2023-04-30T06:15:43.040Z,12.90
2023-04-30T06:19:44.210Z,13.10
2023-04-30T06:23:45.368Z,13.20
2023-04-30T06:27:46.528Z,13.30
2023-04-30T06:31:47.828Z,13.20
2023-04-30T06:35:51.047Z,13.50
2023-04-30T06:39:52.239Z,13.70
2023-04-30T06:43:53.489Z,13.80
2023-04-30T06:47:55.168Z,14.00
2023-04-30T06:51:57.932Z,14.20
2023-04-30T06:56:00.001Z,14.30
2023-04-30T07:00:01.578Z,14.50
2023-04-30T07:04:02.832Z,14.60
2023-04-30T07:08:06.182Z,14.70
2023-04-30T07:12:07.478Z,15.10
2023-04-30T07:16:10.087Z,15.50
2023-04-30T07:20:14.026Z,15.60
2023-04-30T07:24:15.212Z,15.40
2023-04-30T07:28:16.402Z,15.40
2023-04-30T07:32:17.686Z,15.20
2023-04-30T07:36:18.851Z,15.60
2023-04-30T07:40:32.686Z,15.80
2023-04-30T07:44:23.175Z,15.90
2023-04-30T07:48:24.346Z,16.20
2023-04-30T07:52:25.522Z,16.40
2023-04-30T07:56:26.910Z,17.10
2023-04-30T08:00:28.866Z,17.10
2023-04-30T08:04:30.107Z,17.20
2023-04-30T08:08:31.319Z,17.50
2023-04-30T08:12:37.053Z,17.70
2023-04-30T08:16:38.224Z,17.50
2023-04-30T08:20:39.359Z,18.00
2023-04-30T08:24:40.616Z,18.00
2023-04-30T08:28:41.760Z,18.30
2023-04-30T08:32:42.962Z,18.60
2023-04-30T08:36:44.226Z,18.60
2023-04-30T08:40:51.693Z,19.00
2023-04-30T08:44:52.045Z,19.20
2023-04-30T08:48:53.622Z,19.50
2023-04-30T08:52:54.875Z,19.70
2023-04-30T08:56:56.437Z,19.60
2023-04-30T09:00:59.009Z,19.70
2023-04-30T09:05:00.188Z,19.60
2023-04-30T09:09:10.824Z,20.10
2023-04-30T09:13:13.690Z,20.00
2023-04-30T09:17:18.672Z,20.50
2023-04-30T09:21:34.456Z,20.90
2023-04-30T09:25:40.733Z,21.60
2023-04-30T09:29:41.913Z,22.10
2023-04-30T09:33:46.711Z,22.60
2023-04-30T09:37:47.844Z,22.40
2023-04-30T09:41:50.958Z,23.00
2023-04-30T09:45:52.205Z,22.10
2023-04-30T09:49:53.565Z,22.10
2023-04-30T09:53:58.393Z,23.10
2023-04-30T09:57:59.848Z,22.20
2023-04-30T10:02:03.078Z,22.50
2023-04-30T10:06:05.468Z,22.30
2023-04-30T10:10:10.373Z,23.00
2023-04-30T10:14:12.835Z,23.60
2023-04-30T10:18:17.809Z,24.20
2023-04-30T10:22:19.367Z,23.60
2023-04-30T10:26:21.991Z,23.00
2023-04-30T10:30:23.477Z,23.00
2023-04-30T10:34:37.771Z,23.30
2023-04-30T10:38:40.163Z,22.80
2023-04-30T10:42:49.553Z,23.00
2023-04-30T10:46:59.019Z,22.90
2023-04-30T10:51:00.289Z,23.00
2023-04-30T10:55:06.884Z,22.90
2023-04-30T10:59:08.261Z,23.30
2023-04-30T11:03:09.468Z,23.20
2023-04-30T11:07:10.922Z,23.10
2023-04-30T11:11:17.424Z,23.10
2023-04-30T11:15:21.934Z,23.70
2023-04-30T11:19:24.401Z,24.30
2023-04-30T11:23:38.523Z,24.20
2023-04-30T11:27:33.582Z,23.70
2023-04-30T11:31:34.882Z,24.30
2023-04-30T11:35:36.097Z,24.60
2023-04-30T11:39:38.883Z,23.50
2023-04-30T11:43:40.044Z,23.30
2023-04-30T11:47:46.720Z,23.70
2023-04-30T11:51:49.908Z,23.90
2023-04-30T11:55:55.019Z,24.00
2023-04-30T11:59:58.049Z,23.80
2023-04-30T12:03:59.863Z,23.40
2023-04-30T12:08:05.707Z,23.80
2023-04-30T12:12:06.862Z,24.50
2023-04-30T12:16:08.477Z,24.20
2023-04-30T12:20:12.168Z,24.50
2023-04-30T12:24:16.377Z,24.10
2023-04-30T12:28:17.645Z,24.20
2023-04-30T12:32:18.989Z,24.10
2023-04-30T12:36:20.172Z,25.00
2023-04-30T12:40:25.240Z,24.50
2023-04-30T12:44:28.594Z,23.90
2023-04-30T12:48:29.762Z,23.60
2023-04-30T12:52:33.047Z,23.10
2023-04-30T12:56:34.719Z,23.60
2023-04-30T13:00:50.778Z,23.90
2023-04-30T13:04:53.053Z,23.30
2023-04-30T13:08:58.399Z,23.50
2023-04-30T13:12:57.821Z,23.70
2023-04-30T13:16:59.366Z,23.90
2023-04-30T13:21:00.540Z,23.40
2023-04-30T13:25:02.601Z,23.30
2023-04-30T13:29:03.769Z,23.30
2023-04-30T13:33:04.984Z,23.60
2023-04-30T13:37:06.256Z,23.70
2023-04-30T13:41:07.547Z,23.30
2023-04-30T13:45:09.242Z,23.10
2023-04-30T13:49:10.430Z,22.80
2023-04-30T13:53:11.563Z,22.90
2023-04-30T13:57:12.818Z,22.80
2023-04-30T14:01:14.106Z,22.60
2023-04-30T14:05:15.664Z,22.40
2023-04-30T14:09:17.438Z,22.10
2023-04-30T14:13:18.993Z,23.00
2023-04-30T14:17:20.647Z,22.80
2023-04-30T14:21:21.934Z,22.50
2023-04-30T14:25:23.474Z,22.30
2023-04-30T14:29:24.665Z,22.20
2023-04-30T14:33:26.142Z,22.30
2023-04-30T14:37:27.291Z,22.10
2023-04-30T14:41:28.358Z,21.90
2023-04-30T14:45:29.969Z,21.80
2023-04-30T14:49:31.486Z,21.80
2023-04-30T14:53:32.926Z,22.10
2023-04-30T14:57:34.452Z,21.90
2023-04-30T15:01:35.655Z,21.90
2023-04-30T15:05:37.228Z,21.80
2023-04-30T15:09:38.574Z,22.10
2023-04-30T15:13:39.845Z,21.80
2023-04-30T15:17:40.996Z,21.60
2023-04-30T15:21:42.774Z,22.20
2023-04-30T15:25:44.044Z,22.70
2023-04-30T15:29:45.907Z,23.00
2023-04-30T15:33:47.117Z,22.30
2023-04-30T15:37:48.284Z,22.00
2023-04-30T15:41:49.448Z,21.40
2023-04-30T15:45:50.601Z,21.30
2023-04-30T15:49:51.759Z,21.20
2023-04-30T15:53:53.298Z,21.00
2023-04-30T15:57:54.552Z,21.10
2023-04-30T16:01:55.760Z,21.10
2023-04-30T16:05:57.226Z,20.80
2023-04-30T16:09:59.346Z,20.90
2023-04-30T16:14:01.295Z,21.10
2023-04-30T16:18:02.709Z,21.10
2023-04-30T16:22:04.179Z,21.20
2023-04-30T16:26:05.636Z,21.00
2023-04-30T16:30:08.435Z,20.80
2023-04-30T16:34:12.740Z,20.90
2023-04-30T16:38:14.027Z,21.00
2023-04-30T16:42:15.326Z,21.30
2023-04-30T16:46:16.647Z,21.50
2023-04-30T16:50:17.860Z,21.50
2023-04-30T16:54:19.253Z,21.50
2023-04-30T16:58:20.592Z,21.50
2023-04-30T17:02:22.118Z,21.30
2023-04-30T17:06:23.481Z,21.20
2023-04-30T17:10:25.883Z,21.00
2023-04-30T17:14:28.002Z,21.00
2023-04-30T17:18:29.304Z,20.70
2023-04-30T17:22:30.911Z,20.50
2023-04-30T17:26:32.312Z,20.10
2023-04-30T17:30:33.728Z,20.10
2023-04-30T17:34:35.246Z,20.30
2023-04-30T17:38:36.661Z,20.10
2023-04-30T17:42:38.668Z,20.10
2023-04-30T17:46:40.711Z,19.80
2023-04-30T17:50:42.062Z,19.70
2023-04-30T17:54:43.362Z,19.50
2023-04-30T17:58:45.282Z,19.50
2023-04-30T18:02:46.802Z,19.60
2023-04-30T18:06:48.419Z,19.60
2023-04-30T18:10:49.836Z,19.60
2023-04-30T18:14:51.144Z,19.60
2023-04-30T18:18:52.445Z,19.40
2023-04-30T18:22:53.957Z,19.10
2023-04-30T18:26:55.449Z,19.00
2023-04-30T18:30:56.907Z,18.90
2023-04-30T18:34:58.587Z,18.80
2023-04-30T18:38:59.914Z,18.80
2023-04-30T18:43:01.311Z,18.80
2023-04-30T18:47:04.188Z,18.80
2023-04-30T18:51:05.690Z,18.70
2023-04-30T18:55:08.244Z,18.60
2023-04-30T18:59:10.107Z,18.40
2023-04-30T19:03:11.678Z,18.30
2023-04-30T19:07:13.724Z,18.30
2023-04-30T19:11:15.791Z,18.10
2023-04-30T19:15:18.008Z,18.10
2023-04-30T19:19:19.336Z,18.10
2023-04-30T19:23:20.762Z,18.10
2023-04-30T19:27:22.200Z,18.00
2023-04-30T19:31:23.815Z,18.00
2023-04-30T19:35:25.351Z,18.00
2023-04-30T19:39:33.952Z,17.90
2023-04-30T19:43:35.653Z,17.70
2023-04-30T19:47:37.530Z,17.50
2023-04-30T19:51:39.151Z,17.40
2023-04-30T19:55:40.811Z,17.10
2023-04-30T19:59:42.894Z,17.00
2023-04-30T20:03:44.397Z,16.90
2023-04-30T20:07:45.975Z,17.00
2023-04-30T20:11:49.053Z,16.90
2023-04-30T20:15:50.988Z,16.90
2023-04-30T20:19:52.127Z,16.70
2023-04-30T20:23:53.505Z,16.70
2023-04-30T20:27:55.371Z,16.80
2023-04-30T20:31:57.618Z,16.60
2023-04-30T20:35:59.144Z,16.50
2023-04-30T20:40:00.806Z,16.50
2023-04-30T20:44:02.133Z,16.40
2023-04-30T20:48:03.390Z,16.30
2023-04-30T20:52:05.051Z,16.20
2023-04-30T20:56:06.282Z,16.30
2023-04-30T21:00:09.036Z,16.30
2023-04-30T21:04:10.572Z,16.10
2023-04-30T21:08:11.745Z,16.10
2023-04-30T21:12:12.904Z,16.00
2023-04-30T21:16:14.260Z,16.00
2023-04-30T21:20:15.498Z,16.10
2023-04-30T21:24:16.662Z,16.10
2023-04-30T21:28:17.831Z,16.10
2023-04-30T21:32:19.109Z,15.90
2023-04-30T21:36:21.312Z,15.80
2023-04-30T21:40:22.455Z,15.80
2023-04-30T21:44:24.237Z,15.60
2023-04-30T21:48:25.827Z,15.50
2023-04-30T21:52:27.177Z,15.40
2023-04-30T21:56:28.503Z,15.30
2023-04-30T22:00:29.699Z,15.30
2023-04-30T22:04:31.153Z,15.40
2023-04-30T22:08:32.686Z,15.20
2023-04-30T22:12:34.430Z,15.10
2023-04-30T22:16:35.623Z,15.10
2023-04-30T22:20:36.763Z,15.10
2023-04-30T22:24:37.972Z,15.10
2023-04-30T22:28:39.164Z,15.30
2023-04-30T22:32:40.406Z,15.20
2023-04-30T22:36:42.829Z,15.10
2023-04-30T22:40:44.608Z,14.90
2023-04-30T22:44:46.015Z,14.70
2023-04-30T22:48:47.476Z,14.70
2023-04-30T22:52:49.188Z,14.80
2023-04-30T22:56:50.587Z,14.70
2023-04-30T23:00:51.951Z,14.80
2023-04-30T23:04:53.370Z,14.80
2023-04-30T23:08:54.888Z,14.80
2023-04-30T23:12:58.124Z,14.80
2023-04-30T23:17:00.119Z,14.80
2023-04-30T23:21:01.567Z,14.80
2023-04-30T23:25:03.119Z,14.80
2023-04-30T23:29:04.686Z,14.90
2023-04-30T23:33:06.077Z,14.80
2023-04-30T23:37:08.428Z,14.70
2023-04-30T23:41:09.741Z,14.70
2023-04-30T23:45:11.177Z,14.70
2023-04-30T23:49:12.424Z,14.70
2023-04-30T23:53:15.589Z,14.70
2023-04-30T23:57:17.043Z,14.70
